sensor_id;sensor_type;location;lat;lon;timestamp;temperature;humidity
6244;DHT22;3155;49.940;8.450;2023-04-06T00:01:23;-1.10;99.90
6244;DHT22;3155;49.940;8.450;2023-04-06T00:03:50;-1.20;99.90
6244;DHT22;3155;49.940;8.450;2023-04-06T00:06:17;-1.10;99.90
6244;DHT22;3155;49.940;8.450;2023-04-06T00:08:44;-1.00;99.90
6244;DHT22;3155;49.940;8.450;2023-04-06T00:11:11;-1.00;99.90
6244;DHT22;3155;49.940;8.450;2023-04-06T00:13:38;-1.10;99.90
6244;DHT22;3155;49.940;8.450;2023-04-06T00:16:05;-1.10;99.90
6244;DHT22;3155;49.940;8.450;2023-04-06T00:18:32;-1.20;99.90
6244;DHT22;3155;49.940;8.450;2023-04-06T00:20:59;-1.20;99.90
6244;DHT22;3155;49.940;8.450;2023-04-06T00:23:26;-1.30;99.90
6244;DHT22;3155;49.940;8.450;2023-04-06T00:25:53;-1.40;99.90
6244;DHT22;3155;49.940;8.450;2023-04-06T00:28:20;-1.50;99.90
6244;DHT22;3155;49.940;8.450;2023-04-06T00:30:54;-1.50;99.90
6244;DHT22;3155;49.940;8.450;2023-04-06T00:33:22;-1.50;99.90
6244;DHT22;3155;49.940;8.450;2023-04-06T00:35:50;-1.50;99.90
6244;DHT22;3155;49.940;8.450;2023-04-06T00:38:17;-1.60;99.90
6244;DHT22;3155;49.940;8.450;2023-04-06T00:40:47;-1.70;99.90
6244;DHT22;3155;49.940;8.450;2023-04-06T00:43:14;-1.80;99.90
6244;DHT22;3155;49.940;8.450;2023-04-06T00:45:44;-1.80;99.90
6244;DHT22;3155;49.940;8.450;2023-04-06T00:48:11;-1.80;99.90
6244;DHT22;3155;49.940;8.450;2023-04-06T00:50:38;-1.70;99.90
6244;DHT22;3155;49.940;8.450;2023-04-06T00:53:05;-1.70;99.90
6244;DHT22;3155;49.940;8.450;2023-04-06T00:55:32;-1.70;99.90
6244;DHT22;3155;49.940;8.450;2023-04-06T00:57:59;-1.80;99.90
6244;DHT22;3155;49.940;8.450;2023-04-06T01:00:27;-2.00;99.90
6244;DHT22;3155;49.940;8.450;2023-04-06T01:02:53;-2.10;99.90
6244;DHT22;3155;49.940;8.450;2023-04-06T01:05:23;-2.20;99.90
6244;DHT22;3155;49.940;8.450;2023-04-06T01:07:50;-2.30;99.90
6244;DHT22;3155;49.940;8.450;2023-04-06T01:10:25;-2.20;99.90
6244;DHT22;3155;49.940;8.450;2023-04-06T01:12:52;-2.30;99.90
6244;DHT22;3155;49.940;8.450;2023-04-06T01:15:20;-2.30;99.90
6244;DHT22;3155;49.940;8.450;2023-04-06T01:17:47;-2.30;99.90
6244;DHT22;3155;49.940;8.450;2023-04-06T01:20:15;-2.40;99.90
6244;DHT22;3155;49.940;8.450;2023-04-06T01:22:42;-2.50;99.90
6244;DHT22;3155;49.940;8.450;2023-04-06T01:25:10;-2.60;99.90
6244;DHT22;3155;49.940;8.450;2023-04-06T01:27:37;-2.60;99.90
6244;DHT22;3155;49.940;8.450;2023-04-06T01:30:05;-2.70;99.90
6244;DHT22;3155;49.940;8.450;2023-04-06T01:32:32;-2.80;99.90
6244;DHT22;3155;49.940;8.450;2023-04-06T01:34:59;-2.80;99.90
6244;DHT22;3155;49.940;8.450;2023-04-06T01:37:26;-2.90;99.90
6244;DHT22;3155;49.940;8.450;2023-04-06T01:39:53;-3.00;99.90
6244;DHT22;3155;49.940;8.450;2023-04-06T01:42:19;-3.10;99.90
6244;DHT22;3155;49.940;8.450;2023-04-06T01:44:48;-3.00;99.90
6244;DHT22;3155;49.940;8.450;2023-04-06T01:47:15;-3.00;99.90
6244;DHT22;3155;49.940;8.450;2023-04-06T01:49:42;-3.00;99.90
6244;DHT22;3155;49.940;8.450;2023-04-06T01:52:12;-3.10;99.90
6244;DHT22;3155;49.940;8.450;2023-04-06T01:54:38;-3.20;99.90
6244;DHT22;3155;49.940;8.450;2023-04-06T01:57:05;-3.10;99.90
6244;DHT22;3155;49.940;8.450;2023-04-06T01:59:32;-3.10;99.90
6244;DHT22;3155;49.940;8.450;2023-04-06T02:01:59;-3.10;99.90
6244;DHT22;3155;49.940;8.450;2023-04-06T02:04:29;-3.00;99.90
6244;DHT22;3155;49.940;8.450;2023-04-06T02:06:59;-3.00;99.90
6244;DHT22;3155;49.940;8.450;2023-04-06T02:09:26;-3.00;99.90
6244;DHT22;3155;49.940;8.450;2023-04-06T02:11:52;-3.00;99.90
6244;DHT22;3155;49.940;8.450;2023-04-06T02:14:19;-3.00;99.90
6244;DHT22;3155;49.940;8.450;2023-04-06T02:16:46;-3.10;99.90
6244;DHT22;3155;49.940;8.450;2023-04-06T02:19:13;-3.10;99.90
6244;DHT22;3155;49.940;8.450;2023-04-06T02:21:40;-3.10;99.90
6244;DHT22;3155;49.940;8.450;2023-04-06T02:24:07;-3.10;99.90
6244;DHT22;3155;49.940;8.450;2023-04-06T02:26:47;-3.10;99.90
6244;DHT22;3155;49.940;8.450;2023-04-06T02:29:14;-3.10;99.90
6244;DHT22;3155;49.940;8.450;2023-04-06T02:31:41;-3.10;99.90
6244;DHT22;3155;49.940;8.450;2023-04-06T02:34:08;-3.20;99.90
6244;DHT22;3155;49.940;8.450;2023-04-06T02:36:37;-3.20;99.90
6244;DHT22;3155;49.940;8.450;2023-04-06T02:39:04;-3.20;99.90
6244;DHT22;3155;49.940;8.450;2023-04-06T02:41:31;-3.20;99.90
6244;DHT22;3155;49.940;8.450;2023-04-06T02:43:57;-3.30;99.90
6244;DHT22;3155;49.940;8.450;2023-04-06T02:46:24;-3.30;99.90
6244;DHT22;3155;49.940;8.450;2023-04-06T02:48:54;-3.30;99.90
6244;DHT22;3155;49.940;8.450;2023-04-06T02:51:21;-3.40;99.90
6244;DHT22;3155;49.940;8.450;2023-04-06T02:53:47;-3.40;99.90
6244;DHT22;3155;49.940;8.450;2023-04-06T02:56:14;-3.50;99.90
6244;DHT22;3155;49.940;8.450;2023-04-06T02:58:44;-3.60;99.90
6244;DHT22;3155;49.940;8.450;2023-04-06T03:01:10;-3.60;99.90
6244;DHT22;3155;49.940;8.450;2023-04-06T03:03:37;-3.70;99.90
6244;DHT22;3155;49.940;8.450;2023-04-06T03:06:04;-3.70;99.90
6244;DHT22;3155;49.940;8.450;2023-04-06T03:08:31;-3.70;99.90
6244;DHT22;3155;49.940;8.450;2023-04-06T03:10:58;-3.80;99.90
6244;DHT22;3155;49.940;8.450;2023-04-06T03:13:25;-3.80;99.90
6244;DHT22;3155;49.940;8.450;2023-04-06T03:15:52;-3.80;99.90
6244;DHT22;3155;49.940;8.450;2023-04-06T03:18:22;-3.70;99.90
6244;DHT22;3155;49.940;8.450;2023-04-06T03:20:49;-3.70;99.90
6244;DHT22;3155;49.940;8.450;2023-04-06T03:23:16;-3.70;99.90
6244;DHT22;3155;49.940;8.450;2023-04-06T03:25:43;-3.50;99.90
6244;DHT22;3155;49.940;8.450;2023-04-06T03:28:10;-3.50;99.90
6244;DHT22;3155;49.940;8.450;2023-04-06T03:30:37;-3.50;99.90
6244;DHT22;3155;49.940;8.450;2023-04-06T03:33:04;-3.50;99.90
6244;DHT22;3155;49.940;8.450;2023-04-06T03:35:31;-3.50;99.90
6244;DHT22;3155;49.940;8.450;2023-04-06T03:37:58;-3.50;99.90
6244;DHT22;3155;49.940;8.450;2023-04-06T03:40:27;-3.60;99.90
6244;DHT22;3155;49.940;8.450;2023-04-06T03:42:54;-3.50;99.90
6244;DHT22;3155;49.940;8.450;2023-04-06T03:45:24;-3.50;99.90
6244;DHT22;3155;49.940;8.450;2023-04-06T03:47:50;-3.60;99.90
6244;DHT22;3155;49.940;8.450;2023-04-06T03:50:17;-3.60;99.90
6244;DHT22;3155;49.940;8.450;2023-04-06T03:52:50;-3.70;99.90
6244;DHT22;3155;49.940;8.450;2023-04-06T03:55:20;-3.80;99.90
6244;DHT22;3155;49.940;8.450;2023-04-06T03:57:47;-3.80;99.90
6244;DHT22;3155;49.940;8.450;2023-04-06T04:00:14;-3.80;99.90
6244;DHT22;3155;49.940;8.450;2023-04-06T04:02:41;-3.80;99.90
6244;DHT22;3155;49.940;8.450;2023-04-06T04:05:08;-3.80;99.90
6244;DHT22;3155;49.940;8.450;2023-04-06T04:07:35;-3.80;99.90
6244;DHT22;3155;49.940;8.450;2023-04-06T04:10:03;-3.90;99.90
6244;DHT22;3155;49.940;8.450;2023-04-06T04:12:29;-4.00;99.90
6244;DHT22;3155;49.940;8.450;2023-04-06T04:14:56;-4.10;99.90
6244;DHT22;3155;49.940;8.450;2023-04-06T04:17:26;-4.00;99.90
6244;DHT22;3155;49.940;8.450;2023-04-06T04:20:15;-4.00;99.90
6244;DHT22;3155;49.940;8.450;2023-04-06T04:22:43;-4.10;99.90
6244;DHT22;3155;49.940;8.450;2023-04-06T04:25:11;-4.20;99.90
6244;DHT22;3155;49.940;8.450;2023-04-06T04:27:38;-4.20;99.90
6244;DHT22;3155;49.940;8.450;2023-04-06T04:30:08;-4.20;99.90
6244;DHT22;3155;49.940;8.450;2023-04-06T04:32:57;-4.20;99.90
6244;DHT22;3155;49.940;8.450;2023-04-06T04:35:23;-4.30;99.90
6244;DHT22;3155;49.940;8.450;2023-04-06T04:37:50;-4.30;99.90
6244;DHT22;3155;49.940;8.450;2023-04-06T04:40:17;-4.20;99.90
6244;DHT22;3155;49.940;8.450;2023-04-06T04:42:44;-4.10;99.90
6244;DHT22;3155;49.940;8.450;2023-04-06T04:45:11;-4.00;99.90
6244;DHT22;3155;49.940;8.450;2023-04-06T04:47:38;-4.00;99.90
6244;DHT22;3155;49.940;8.450;2023-04-06T04:50:16;-4.00;99.90
6244;DHT22;3155;49.940;8.450;2023-04-06T04:52:45;-4.00;99.90
6244;DHT22;3155;49.940;8.450;2023-04-06T04:55:13;-4.00;99.90
6244;DHT22;3155;49.940;8.450;2023-04-06T04:57:39;-4.00;99.90
6244;DHT22;3155;49.940;8.450;2023-04-06T05:00:07;-3.90;99.90
6244;DHT22;3155;49.940;8.450;2023-04-06T05:06:03;-3.50;99.90
6244;DHT22;3155;49.940;8.450;2023-04-06T05:08:45;-3.50;99.90
6244;DHT22;3155;49.940;8.450;2023-04-06T05:11:12;-3.40;99.90
6244;DHT22;3155;49.940;8.450;2023-04-06T05:13:41;-3.30;99.90
6244;DHT22;3155;49.940;8.450;2023-04-06T05:16:10;-3.30;99.90
6244;DHT22;3155;49.940;8.450;2023-04-06T05:18:44;-3.30;99.90
6244;DHT22;3155;49.940;8.450;2023-04-06T05:21:11;-3.20;99.90
6244;DHT22;3155;49.940;8.450;2023-04-06T05:23:38;-3.20;99.90
6244;DHT22;3155;49.940;8.450;2023-04-06T05:26:05;-3.10;99.90
6244;DHT22;3155;49.940;8.450;2023-04-06T05:28:32;-3.00;99.90
6244;DHT22;3155;49.940;8.450;2023-04-06T05:31:01;-2.90;99.90
6244;DHT22;3155;49.940;8.450;2023-04-06T05:33:28;-2.90;99.90
6244;DHT22;3155;49.940;8.450;2023-04-06T05:35:58;-2.80;99.90
6244;DHT22;3155;49.940;8.450;2023-04-06T05:38:27;-2.70;99.90
6244;DHT22;3155;49.940;8.450;2023-04-06T05:40:54;-2.70;99.90
6244;DHT22;3155;49.940;8.450;2023-04-06T05:43:22;-2.60;99.90
6244;DHT22;3155;49.940;8.450;2023-04-06T05:45:49;-2.40;99.90
6244;DHT22;3155;49.940;8.450;2023-04-06T05:48:15;-2.30;99.90
6244;DHT22;3155;49.940;8.450;2023-04-06T05:50:42;-2.20;99.90
6244;DHT22;3155;49.940;8.450;2023-04-06T05:53:09;-2.00;99.90
6244;DHT22;3155;49.940;8.450;2023-04-06T05:55:36;-1.90;99.90
6244;DHT22;3155;49.940;8.450;2023-04-06T05:58:03;-1.70;99.90
6244;DHT22;3155;49.940;8.450;2023-04-06T06:00:29;-1.60;99.90
6244;DHT22;3155;49.940;8.450;2023-04-06T06:02:56;-1.50;99.90
6244;DHT22;3155;49.940;8.450;2023-04-06T06:05:25;-1.30;99.90
6244;DHT22;3155;49.940;8.450;2023-04-06T06:07:52;-1.20;99.90
6244;DHT22;3155;49.940;8.450;2023-04-06T06:10:19;-0.70;99.90
6244;DHT22;3155;49.940;8.450;2023-04-06T06:12:48;-0.20;99.90
6244;DHT22;3155;49.940;8.450;2023-04-06T06:15:15;0.60;99.90
6244;DHT22;3155;49.940;8.450;2023-04-06T06:17:45;1.30;99.90
6244;DHT22;3155;49.940;8.450;2023-04-06T06:20:15;2.10;99.90
6244;DHT22;3155;49.940;8.450;2023-04-06T06:22:42;2.90;99.90
6244;DHT22;3155;49.940;8.450;2023-04-06T06:25:14;3.60;99.90
6244;DHT22;3155;49.940;8.450;2023-04-06T06:27:42;4.10;99.90
6244;DHT22;3155;49.940;8.450;2023-04-06T06:30:09;4.50;99.90
6244;DHT22;3155;49.940;8.450;2023-04-06T06:32:36;4.70;99.90
6244;DHT22;3155;49.940;8.450;2023-04-06T06:35:03;4.90;99.90
6244;DHT22;3155;49.940;8.450;2023-04-06T06:37:30;5.20;99.90
6244;DHT22;3155;49.940;8.450;2023-04-06T06:39:59;5.40;99.90
6244;DHT22;3155;49.940;8.450;2023-04-06T06:42:26;5.50;99.90
6244;DHT22;3155;49.940;8.450;2023-04-06T07:02:12;6.00;99.90
6244;DHT22;3155;49.940;8.450;2023-04-06T07:04:38;8.50;99.90
6244;DHT22;3155;49.940;8.450;2023-04-06T07:07:05;9.00;99.90
6244;DHT22;3155;49.940;8.450;2023-04-06T07:09:32;8.80;99.90
6244;DHT22;3155;49.940;8.450;2023-04-06T07:12:02;8.80;99.90
6244;DHT22;3155;49.940;8.450;2023-04-06T07:14:29;8.70;99.90
6244;DHT22;3155;49.940;8.450;2023-04-06T07:16:56;8.90;99.90
6244;DHT22;3155;49.940;8.450;2023-04-06T07:19:23;8.50;99.90
6244;DHT22;3155;49.940;8.450;2023-04-06T07:21:50;8.40;99.90
6244;DHT22;3155;49.940;8.450;2023-04-06T07:24:16;8.60;99.90
6244;DHT22;3155;49.940;8.450;2023-04-06T07:26:46;8.80;99.90
6244;DHT22;3155;49.940;8.450;2023-04-06T07:29:13;8.50;99.90
6244;DHT22;3155;49.940;8.450;2023-04-06T07:31:40;7.90;99.90
6244;DHT22;3155;49.940;8.450;2023-04-06T07:34:06;7.90;99.90
6244;DHT22;3155;49.940;8.450;2023-04-06T07:36:33;8.10;99.90
6244;DHT22;3155;49.940;8.450;2023-04-06T07:39:03;8.40;99.90
6244;DHT22;3155;49.940;8.450;2023-04-06T07:41:32;8.80;99.90
6244;DHT22;3155;49.940;8.450;2023-04-06T10:41:06;8.80;99.90
6244;DHT22;3155;49.940;8.450;2023-04-06T19:22:37;15.90;99.90
6244;DHT22;3155;49.940;8.450;2023-04-06T19:25:05;7.20;99.90
6244;DHT22;3155;49.940;8.450;2023-04-06T19:27:33;7.10;99.90
6244;DHT22;3155;49.940;8.450;2023-04-06T19:30:00;7.00;99.90
6244;DHT22;3155;49.940;8.450;2023-04-06T19:32:27;7.00;99.90
6244;DHT22;3155;49.940;8.450;2023-04-06T19:34:55;7.00;99.90
6244;DHT22;3155;49.940;8.450;2023-04-06T19:37:25;6.90;99.90
6244;DHT22;3155;49.940;8.450;2023-04-06T19:39:52;6.90;99.90
6244;DHT22;3155;49.940;8.450;2023-04-06T19:42:19;6.90;99.90
6244;DHT22;3155;49.940;8.450;2023-04-06T19:44:55;6.80;99.90
6244;DHT22;3155;49.940;8.450;2023-04-06T19:47:24;6.80;99.90
6244;DHT22;3155;49.940;8.450;2023-04-06T19:49:51;6.70;99.90
6244;DHT22;3155;49.940;8.450;2023-04-06T19:52:19;6.70;99.90
6244;DHT22;3155;49.940;8.450;2023-04-06T19:54:48;6.60;99.90
6244;DHT22;3155;49.940;8.450;2023-04-06T19:57:17;6.60;99.90
6244;DHT22;3155;49.940;8.450;2023-04-06T19:59:44;6.50;99.90
6244;DHT22;3155;49.940;8.450;2023-04-06T20:02:11;6.60;99.90
6244;DHT22;3155;49.940;8.450;2023-04-06T20:04:38;6.50;99.90
6244;DHT22;3155;49.940;8.450;2023-04-06T20:07:05;6.50;99.90
6244;DHT22;3155;49.940;8.450;2023-04-06T20:09:31;6.50;99.90
6244;DHT22;3155;49.940;8.450;2023-04-06T20:11:58;6.50;99.90
6244;DHT22;3155;49.940;8.450;2023-04-06T20:14:27;6.50;99.90
6244;DHT22;3155;49.940;8.450;2023-04-06T20:16:54;6.50;99.90
6244;DHT22;3155;49.940;8.450;2023-04-06T20:19:20;6.50;99.90
6244;DHT22;3155;49.940;8.450;2023-04-06T20:21:47;6.50;99.90
6244;DHT22;3155;49.940;8.450;2023-04-06T20:24:14;6.40;99.90
6244;DHT22;3155;49.940;8.450;2023-04-06T20:26:41;6.40;99.90
6244;DHT22;3155;49.940;8.450;2023-04-06T20:29:08;6.40;99.90
6244;DHT22;3155;49.940;8.450;2023-04-06T20:31:34;6.30;99.90
6244;DHT22;3155;49.940;8.450;2023-04-06T20:34:01;6.30;99.90
6244;DHT22;3155;49.940;8.450;2023-04-06T20:36:30;6.30;99.90
6244;DHT22;3155;49.940;8.450;2023-04-06T20:38:57;6.20;99.90
6244;DHT22;3155;49.940;8.450;2023-04-06T20:41:24;6.20;99.90
6244;DHT22;3155;49.940;8.450;2023-04-06T20:43:51;6.20;99.90
6244;DHT22;3155;49.940;8.450;2023-04-06T20:46:20;6.20;99.90
6244;DHT22;3155;49.940;8.450;2023-04-06T20:48:47;6.20;99.90
6244;DHT22;3155;49.940;8.450;2023-04-06T20:51:18;6.20;99.90
6244;DHT22;3155;49.940;8.450;2023-04-06T20:53:45;6.20;99.90
6244;DHT22;3155;49.940;8.450;2023-04-06T20:56:14;6.20;99.90
6244;DHT22;3155;49.940;8.450;2023-04-06T20:58:41;6.20;99.90
6244;DHT22;3155;49.940;8.450;2023-04-06T21:01:13;6.20;99.90
6244;DHT22;3155;49.940;8.450;2023-04-06T21:03:41;6.20;99.90
6244;DHT22;3155;49.940;8.450;2023-04-06T21:06:09;6.20;99.90
6244;DHT22;3155;49.940;8.450;2023-04-06T21:08:36;6.10;99.90
6244;DHT22;3155;49.940;8.450;2023-04-06T21:11:03;6.10;99.90
6244;DHT22;3155;49.940;8.450;2023-04-06T21:13:31;6.10;99.90
6244;DHT22;3155;49.940;8.450;2023-04-06T21:15:58;6.10;99.90
6244;DHT22;3155;49.940;8.450;2023-04-06T21:18:25;6.10;99.90
